sensor_id;sensor_type;location;lat;lon;timestamp;pressure;altitude;pressure_sealevel;temperature;humidity
62458;BME280;48509;52.122;5.250;2024-03-23T00:53:07;101024.0;;;9.15;100.0
62458;BME280;48509;52.122;5.250;2024-03-23T00:54:43;101021.0;;;9.21;100.0
62458;BME280;48509;52.122;5.250;2024-03-23T00:56:19;101017.0;;;9.18;100.0
62458;BME280;48509;52.122;5.250;2024-03-23T00:59:31;101015.0;;;9.14;100.0
62458;BME280;48509;52.122;5.250;2024-03-23T01:01:07;101015.0;;;9.17;100.0
62458;BME280;48509;52.122;5.250;2024-03-23T01:02:43;101010.0;;;9.1;100.0
62458;BME280;48509;52.122;5.250;2024-03-23T01:05:59;101011.0;;;9.14;100.0
62458;BME280;48509;52.122;5.250;2024-03-23T01:07:35;101016.0;;;9.02;100.0
62458;BME280;48509;52.122;5.250;2024-03-23T01:09:12;101015.0;;;9.13;100.0
62458;BME280;48509;52.122;5.250;2024-03-23T01:10:54;101003.0;;;9.13;100.0
62458;BME280;48509;52.122;5.250;2024-03-23T01:14:06;101003.0;;;9.18;100.0
62458;BME280;48509;52.122;5.250;2024-03-23T01:15:48;101005.0;;;9.06;100.0
62458;BME280;48509;52.122;5.250;2024-03-23T01:17:24;101006.0;;;9.02;100.0
62458;BME280;48509;52.122;5.250;2024-03-23T01:20:36;100997.0;;;9.11;100.0
62458;BME280;48509;52.122;5.250;2024-03-23T01:22:12;100995.0;;;9.11;100.0
62458;BME280;48509;52.122;5.250;2024-03-23T01:23:48;100995.0;;;9.03;100.0
62458;BME280;48509;52.122;5.250;2024-03-23T01:25:25;100993.0;;;9.0;100.0
62458;BME280;48509;52.122;5.250;2024-03-23T01:28:37;100983.0;;;9.0;100.0
62458;BME280;48509;52.122;5.250;2024-03-23T01:30:13;100982.0;;;9.08;100.0
62458;BME280;48509;52.122;5.250;2024-03-23T01:31:49;100981.0;;;9.11;100.0
62458;BME280;48509;52.122;5.250;2024-03-23T01:35:01;100974.0;;;9.03;100.0
62458;BME280;48509;52.122;5.250;2024-03-23T01:36:37;100972.0;;;8.99;100.0
62458;BME280;48509;52.122;5.250;2024-03-23T01:38:13;100969.0;;;8.92;100.0
62458;BME280;48509;52.122;5.250;2024-03-23T01:41:25;100964.0;;;8.92;100.0
62458;BME280;48509;52.122;5.250;2024-03-23T01:43:04;100963.0;;;8.81;100.0
62458;BME280;48509;52.122;5.250;2024-03-23T01:44:41;100965.0;;;8.74;100.0
62458;BME280;48509;52.122;5.250;2024-03-23T01:46:17;100964.0;;;8.66;100.0
62458;BME280;48509;52.122;5.250;2024-03-23T01:49:29;100962.0;;;8.61;100.0
62458;BME280;48509;52.122;5.250;2024-03-23T01:51:05;100961.0;;;8.6;100.0
62458;BME280;48509;52.122;5.250;2024-03-23T01:52:42;100959.0;;;8.47;100.0
62458;BME280;48509;52.122;5.250;2024-03-23T01:55:54;100960.0;;;8.4;100.0
62458;BME280;48509;52.122;5.250;2024-03-23T01:57:31;100958.0;;;8.38;100.0
62458;BME280;48509;52.122;5.250;2024-03-23T01:59:08;100958.0;;;8.35;100.0
62458;BME280;48509;52.122;5.250;2024-03-23T02:02:20;100955.0;;;8.23;100.0
62458;BME280;48509;52.122;5.250;2024-03-23T02:03:56;100955.0;;;8.16;100.0
62458;BME280;48509;52.122;5.250;2024-03-23T02:05:33;100952.0;;;8.06;100.0
62458;BME280;48509;52.122;5.250;2024-03-23T02:08:45;100956.0;;;8.03;100.0
62458;BME280;48509;52.122;5.250;2024-03-23T02:10:21;100956.0;;;7.98;100.0
62458;BME280;48509;52.122;5.250;2024-03-23T02:11:58;100957.0;;;7.91;100.0
62458;BME280;48509;52.122;5.250;2024-03-23T02:13:34;100959.0;;;7.94;100.0
62458;BME280;48509;52.122;5.250;2024-03-23T02:16:46;100962.0;;;7.92;100.0
62458;BME280;48509;52.122;5.250;2024-03-23T02:18:22;100960.0;;;7.98;100.0
62458;BME280;48509;52.122;5.250;2024-03-23T02:19:58;100956.0;;;7.98;100.0
62458;BME280;48509;52.122;5.250;2024-03-23T02:23:13;100956.0;;;8.08;100.0
62458;BME280;48509;52.122;5.250;2024-03-23T02:24:49;100951.0;;;8.06;100.0
62458;BME280;48509;52.122;5.250;2024-03-23T02:26:25;100948.0;;;8.05;100.0
62458;BME280;48509;52.122;5.250;2024-03-23T02:29:37;100943.0;;;8.0;100.0
62458;BME280;48509;52.122;5.250;2024-03-23T02:31:13;100940.0;;;7.85;100.0
62458;BME280;48509;52.122;5.250;2024-03-23T02:32:50;100942.0;;;7.81;100.0
62458;BME280;48509;52.122;5.250;2024-03-23T02:34:26;100938.0;;;7.83;100.0
62458;BME280;48509;52.122;5.250;2024-03-23T02:37:38;100936.0;;;7.77;100.0
62458;BME280;48509;52.122;5.250;2024-03-23T02:39:14;100932.0;;;7.8;100.0
62458;BME280;48509;52.122;5.250;2024-03-23T02:40:50;100932.0;;;7.69;100.0
62458;BME280;48509;52.122;5.250;2024-03-23T02:44:02;100933.0;;;7.76;100.0
62458;BME280;48509;52.122;5.250;2024-03-23T02:45:38;100927.0;;;7.66;100.0
62458;BME280;48509;52.122;5.250;2024-03-23T02:47:14;100927.0;;;7.54;100.0
62458;BME280;48509;52.122;5.250;2024-03-23T02:50:27;100927.0;;;7.54;100.0
62458;BME280;48509;52.122;5.250;2024-03-23T02:52:03;100930.0;;;7.48;100.0
62458;BME280;48509;52.122;5.250;2024-03-23T02:53:39;100926.0;;;7.46;100.0
62458;BME280;48509;52.122;5.250;2024-03-23T02:56:51;100931.0;;;7.35;100.0
62458;BME280;48509;52.122;5.250;2024-03-23T02:58:27;100938.0;;;7.34;100.0
62458;BME280;48509;52.122;5.250;2024-03-23T03:00:04;100932.0;;;7.21;100.0
62458;BME280;48509;52.122;5.250;2024-03-23T03:01:40;100928.0;;;7.28;100.0
62458;BME280;48509;52.122;5.250;2024-03-23T03:04:53;100930.0;;;7.27;100.0
62458;BME280;48509;52.122;5.250;2024-03-23T03:06:30;100934.0;;;7.24;100.0
62458;BME280;48509;52.122;5.250;2024-03-23T03:08:07;100930.0;;;7.12;100.0
62458;BME280;48509;52.122;5.250;2024-03-23T03:11:19;100931.0;;;7.15;100.0
62458;BME280;48509;52.122;5.250;2024-03-23T03:12:55;100930.0;;;7.14;100.0
62458;BME280;48509;52.122;5.250;2024-03-23T03:14:31;100926.0;;;7.18;100.0
62458;BME280;48509;52.122;5.250;2024-03-23T03:17:45;100921.0;;;7.19;100.0
62458;BME280;48509;52.122;5.250;2024-03-23T03:19:20;100922.0;;;6.98;100.0
62458;BME280;48509;52.122;5.250;2024-03-23T03:20:57;100923.0;;;6.89;100.0
62458;BME280;48509;52.122;5.250;2024-03-23T03:22:33;100925.0;;;7.0;100.0
62458;BME280;48509;52.122;5.250;2024-03-23T03:25:45;100925.0;;;7.05;100.0
62458;BME280;48509;52.122;5.250;2024-03-23T03:27:21;100926.0;;;6.86;100.0
62458;BME280;48509;52.122;5.250;2024-03-23T03:28:57;100919.0;;;6.87;100.0
62458;BME280;48509;52.122;5.250;2024-03-23T03:32:09;100916.0;;;6.8;100.0
62458;BME280;48509;52.122;5.250;2024-03-23T03:33:45;100919.0;;;6.83;100.0
62458;BME280;48509;52.122;5.250;2024-03-23T03:35:21;100913.0;;;6.94;100.0
62458;BME280;48509;52.122;5.250;2024-03-23T03:38:34;100915.0;;;6.81;100.0
62458;BME280;48509;52.122;5.250;2024-03-23T03:40:11;100910.0;;;6.83;100.0
62458;BME280;48509;52.122;5.250;2024-03-23T03:41:48;100912.0;;;6.82;100.0
62458;BME280;48509;52.122;5.250;2024-03-23T03:45:00;100909.0;;;6.84;100.0
62458;BME280;48509;52.122;5.250;2024-03-23T03:46:36;100910.0;;;6.84;100.0
62458;BME280;48509;52.122;5.250;2024-03-23T03:48:12;100911.0;;;6.74;100.0
62458;BME280;48509;52.122;5.250;2024-03-23T03:49:48;100910.0;;;6.69;100.0
62458;BME280;48509;52.122;5.250;2024-03-23T03:53:00;100908.0;;;6.68;100.0
62458;BME280;48509;52.122;5.250;2024-03-23T03:54:37;100906.0;;;6.59;100.0
62458;BME280;48509;52.122;5.250;2024-03-23T03:56:13;100905.0;;;6.5;100.0
62458;BME280;48509;52.122;5.250;2024-03-23T03:59:25;100899.0;;;6.38;100.0
62458;BME280;48509;52.122;5.250;2024-03-23T04:01:02;100901.0;;;6.36;100.0
62458;BME280;48509;52.122;5.250;2024-03-23T04:02:38;100899.0;;;6.47;100.0
62458;BME280;48509;52.122;5.250;2024-03-23T04:05:51;100897.0;;;6.45;100.0
62458;BME280;48509;52.122;5.250;2024-03-23T04:07:27;100891.0;;;6.32;100.0
62458;BME280;48509;52.122;5.250;2024-03-23T04:09:03;100889.0;;;6.32;100.0
62458;BME280;48509;52.122;5.250;2024-03-23T04:10:40;100886.0;;;6.35;100.0
62458;BME280;48509;52.122;5.250;2024-03-23T04:13:52;100885.0;;;6.4;100.0
62458;BME280;48509;52.122;5.250;2024-03-23T04:15:28;100885.0;;;6.29;100.0
62458;BME280;48509;52.122;5.250;2024-03-23T04:17:04;100882.0;;;6.42;100.0
62458;BME280;48509;52.122;5.250;2024-03-23T04:20:16;100884.0;;;6.3;100.0
62458;BME280;48509;52.122;5.250;2024-03-23T04:21:52;100886.0;;;6.3;100.0
62458;BME280;48509;52.122;5.250;2024-03-23T04:23:28;100889.0;;;6.24;100.0
62458;BME280;48509;52.122;5.250;2024-03-23T04:26:41;100889.0;;;6.23;100.0
62458;BME280;48509;52.122;5.250;2024-03-23T04:28:19;100884.0;;;6.21;100.0
62458;BME280;48509;52.122;5.250;2024-03-23T04:29:55;100886.0;;;6.22;100.0
62458;BME280;48509;52.122;5.250;2024-03-23T04:33:07;100883.0;;;6.28;100.0
62458;BME280;48509;52.122;5.250;2024-03-23T04:34:43;100880.0;;;6.28;100.0
62458;BME280;48509;52.122;5.250;2024-03-23T04:36:20;100883.0;;;6.22;100.0
62458;BME280;48509;52.122;5.250;2024-03-23T04:37:56;100887.0;;;6.16;100.0
62458;BME280;48509;52.122;5.250;2024-03-23T04:41:08;100884.0;;;6.12;100.0
62458;BME280;48509;52.122;5.250;2024-03-23T04:42:44;100892.0;;;6.1;100.0
62458;BME280;48509;52.122;5.250;2024-03-23T04:44:21;100892.0;;;5.97;100.0
62458;BME280;48509;52.122;5.250;2024-03-23T04:47:33;100893.0;;;5.83;100.0
62458;BME280;48509;52.122;5.250;2024-03-23T04:49:09;100893.0;;;5.82;100.0
62458;BME280;48509;52.122;5.250;2024-03-23T04:50:45;100887.0;;;5.84;100.0
62458;BME280;48509;52.122;5.250;2024-03-23T04:53:57;100885.0;;;5.91;100.0
62458;BME280;48509;52.122;5.250;2024-03-23T04:55:33;100884.0;;;5.91;100.0
62458;BME280;48509;52.122;5.250;2024-03-23T04:57:09;100884.0;;;5.94;100.0
62458;BME280;48509;52.122;5.250;2024-03-23T04:58:45;100881.0;;;6.09;100.0
62458;BME280;48509;52.122;5.250;2024-03-23T05:01:57;100880.0;;;5.93;100.0
62458;BME280;48509;52.122;5.250;2024-03-23T05:03:33;100882.0;;;5.8;100.0
62458;BME280;48509;52.122;5.250;2024-03-23T05:05:09;100880.0;;;5.96;100.0
62458;BME280;48509;52.122;5.250;2024-03-23T05:08:21;100878.0;;;5.98;100.0
62458;BME280;48509;52.122;5.250;2024-03-23T05:09:57;100882.0;;;5.94;100.0
62458;BME280;48509;52.122;5.250;2024-03-23T05:11:33;100886.0;;;5.84;100.0
62458;BME280;48509;52.122;5.250;2024-03-23T05:14:45;100890.0;;;5.79;100.0
62458;BME280;48509;52.122;5.250;2024-03-23T05:16:22;100887.0;;;5.66;100.0
62458;BME280;48509;52.122;5.250;2024-03-23T05:17:58;100885.0;;;5.81;100.0
62458;BME280;48509;52.122;5.250;2024-03-23T05:21:10;100884.0;;;5.74;100.0
62458;BME280;48509;52.122;5.250;2024-03-23T05:22:46;100886.0;;;5.7;100.0
62458;BME280;48509;52.122;5.250;2024-03-23T05:24:22;100889.0;;;5.86;100.0
62458;BME280;48509;52.122;5.250;2024-03-23T05:25:58;100886.0;;;5.89;100.0
62458;BME280;48509;52.122;5.250;2024-03-23T05:29:10;100888.0;;;6.06;100.0
62458;BME280;48509;52.122;5.250;2024-03-23T05:30:50;100887.0;;;6.18;100.0
62458;BME280;48509;52.122;5.250;2024-03-23T05:32:26;100889.0;;;5.99;100.0
62458;BME280;48509;52.122;5.250;2024-03-23T05:35:39;100888.0;;;6.03;100.0
62458;BME280;48509;52.122;5.250;2024-03-23T05:37:15;100888.0;;;6.13;100.0
62458;BME280;48509;52.122;5.250;2024-03-23T05:38:51;100887.0;;;6.27;100.0
62458;BME280;48509;52.122;5.250;2024-03-23T05:42:03;100885.0;;;6.18;100.0
62458;BME280;48509;52.122;5.250;2024-03-23T05:43:39;100889.0;;;6.19;100.0
62458;BME280;48509;52.122;5.250;2024-03-23T05:45:15;100880.0;;;6.43;100.0
62458;BME280;48509;52.122;5.250;2024-03-23T05:46:51;100881.0;;;6.46;100.0
62458;BME280;48509;52.122;5.250;2024-03-23T05:50:05;100880.0;;;6.58;100.0
62458;BME280;48509;52.122;5.250;2024-03-23T05:51:41;100880.0;;;6.53;100.0
62458;BME280;48509;52.122;5.250;2024-03-23T05:53:17;100876.0;;;6.56;100.0
62458;BME280;48509;52.122;5.250;2024-03-23T05:56:30;100871.0;;;6.69;100.0
62458;BME280;48509;52.122;5.250;2024-03-23T05:58:06;100872.0;;;6.75;100.0
62458;BME280;48509;52.122;5.250;2024-03-23T05:59:42;100869.0;;;6.78;100.0
62458;BME280;48509;52.122;5.250;2024-03-23T06:02:54;100872.0;;;6.67;100.0
62458;BME280;48509;52.122;5.250;2024-03-23T06:04:30;100875.0;;;6.67;100.0
62458;BME280;48509;52.122;5.250;2024-03-23T06:06:06;100874.0;;;6.82;100.0
62458;BME280;48509;52.122;5.250;2024-03-23T06:09:19;100877.0;;;6.85;100.0
62458;BME280;48509;52.122;5.250;2024-03-23T06:10:55;100873.0;;;6.74;100.0
62458;BME280;48509;52.122;5.250;2024-03-23T06:12:31;100877.0;;;6.77;100.0
62458;BME280;48509;52.122;5.250;2024-03-23T06:14:07;100874.0;;;6.76;100.0
62458;BME280;48509;52.122;5.250;2024-03-23T06:17:19;100882.0;;;6.77;100.0
62458;BME280;48509;52.122;5.250;2024-03-23T06:18:55;100880.0;;;6.73;100.0
62458;BME280;48509;52.122;5.250;2024-03-23T06:20:31;100880.0;;;6.88;100.0
62458;BME280;48509;52.122;5.250;2024-03-23T06:23:44;100881.0;;;6.98;100.0
62458;BME280;48509;52.122;5.250;2024-03-23T06:25:21;100881.0;;;6.79;100.0
62458;BME280;48509;52.122;5.250;2024-03-23T06:26:57;100874.0;;;6.7;100.0
62458;BME280;48509;52.122;5.250;2024-03-23T06:30:10;100871.0;;;6.71;100.0
62458;BME280;48509;52.122;5.250;2024-03-23T06:31:53;100872.0;;;6.82;100.0
62458;BME280;48509;52.122;5.250;2024-03-23T06:33:29;100873.0;;;6.69;100.0
62458;BME280;48509;52.122;5.250;2024-03-23T06:35:06;100872.0;;;6.77;100.0
62458;BME280;48509;52.122;5.250;2024-03-23T06:38:18;100874.0;;;6.86;100.0
62458;BME280;48509;52.122;5.250;2024-03-23T06:39:54;100865.0;;;6.98;100.0
62458;BME280;48509;52.122;5.250;2024-03-23T06:41:31;100862.0;;;7.08;100.0
62458;BME280;48509;52.122;5.250;2024-03-23T06:44:43;100856.0;;;7.05;100.0
62458;BME280;48509;52.122;5.250;2024-03-23T06:46:19;100859.0;;;7.16;100.0
62458;BME280;48509;52.122;5.250;2024-03-23T06:47:55;100865.0;;;7.02;100.0
62458;BME280;48509;52.122;5.250;2024-03-23T06:51:07;100868.0;;;7.07;100.0
62458;BME280;48509;52.122;5.250;2024-03-23T06:52:43;100869.0;;;7.08;100.0
62458;BME280;48509;52.122;5.250;2024-03-23T06:55:56;100867.0;;;7.26;100.0
62458;BME280;48509;52.122;5.250;2024-03-23T06:59:08;100871.0;;;7.31;100.0
62458;BME280;48509;52.122;5.250;2024-03-23T07:00:44;100868.0;;;7.37;100.0
62458;BME280;48509;52.122;5.250;2024-03-23T07:02:20;100871.0;;;7.37;100.0
62458;BME280;48509;52.122;5.250;2024-03-23T07:05:32;100866.0;;;7.43;100.0
62458;BME280;48509;52.122;5.250;2024-03-23T07:07:08;100865.0;;;7.48;100.0
62458;BME280;48509;52.122;5.250;2024-03-23T07:08:44;100866.0;;;7.54;100.0
62458;BME280;48509;52.122;5.250;2024-03-23T07:11:57;100869.0;;;7.62;100.0
62458;BME280;48509;52.122;5.250;2024-03-23T07:13:33;100861.0;;;7.77;100.0
62458;BME280;48509;52.122;5.250;2024-03-23T07:15:09;100863.0;;;7.78;100.0
62458;BME280;48509;52.122;5.250;2024-03-23T07:18:22;100860.0;;;7.83;100.0
62458;BME280;48509;52.122;5.250;2024-03-23T07:19:59;100873.0;;;7.92;100.0
62458;BME280;48509;52.122;5.250;2024-03-23T07:21:35;100875.0;;;7.94;100.0
62458;BME280;48509;52.122;5.250;2024-03-23T07:23:11;100877.0;;;7.98;100.0
62458;BME280;48509;52.122;5.250;2024-03-23T07:26:24;100875.0;;;8.0;100.0
62458;BME280;48509;52.122;5.250;2024-03-23T07:28:00;100878.0;;;8.08;100.0
62458;BME280;48509;52.122;5.250;2024-03-23T07:29:36;100884.0;;;7.94;100.0
62458;BME280;48509;52.122;5.250;2024-03-23T07:32:49;100873.0;;;8.07;100.0
62458;BME280;48509;52.122;5.250;2024-03-23T07:34:25;100880.0;;;8.15;100.0
62458;BME280;48509;52.122;5.250;2024-03-23T07:36:02;100880.0;;;8.3;100.0
62458;BME280;48509;52.122;5.250;2024-03-23T07:39:14;100880.0;;;8.18;100.0
62458;BME280;48509;52.122;5.250;2024-03-23T07:40:50;100877.0;;;8.23;100.0
62458;BME280;48509;52.122;5.250;2024-03-23T07:42:27;100880.0;;;8.35;100.0
62458;BME280;48509;52.122;5.250;2024-03-23T07:44:05;100878.0;;;8.53;100.0
62458;BME280;48509;52.122;5.250;2024-03-23T07:47:17;100880.0;;;8.68;100.0
62458;BME280;48509;52.122;5.250;2024-03-23T07:48:53;100874.0;;;8.73;100.0
62458;BME280;48509;52.122;5.250;2024-03-23T07:50:29;100871.0;;;8.72;100.0
62458;BME280;48509;52.122;5.250;2024-03-23T07:53:43;100875.0;;;8.73;100.0
62458;BME280;48509;52.122;5.250;2024-03-23T07:55:19;100875.0;;;8.81;100.0
62458;BME280;48509;52.122;5.250;2024-03-23T07:56:55;100882.0;;;8.83;100.0
62458;BME280;48509;52.122;5.250;2024-03-23T08:00:10;100878.0;;;8.56;100.0
62458;BME280;48509;52.122;5.250;2024-03-23T08:01:46;100876.0;;;8.52;100.0
62458;BME280;48509;52.122;5.250;2024-03-23T08:03:22;100876.0;;;8.57;100.0
62458;BME280;48509;52.122;5.250;2024-03-23T08:04:58;100873.0;;;8.77;100.0
62458;BME280;48509;52.122;5.250;2024-03-23T08:08:10;100873.0;;;8.96;100.0
62458;BME280;48509;52.122;5.250;2024-03-23T08:09:46;100870.0;;;9.13;100.0
62458;BME280;48509;52.122;5.250;2024-03-23T08:11:22;100876.0;;;9.03;100.0
62458;BME280;48509;52.122;5.250;2024-03-23T08:14:36;100867.0;;;8.81;100.0
62458;BME280;48509;52.122;5.250;2024-03-23T08:16:12;100865.0;;;8.93;100.0
62458;BME280;48509;52.122;5.250;2024-03-23T08:17:48;100864.0;;;8.85;100.0
62458;BME280;48509;52.122;5.250;2024-03-23T08:21:02;100865.0;;;8.99;100.0
62458;BME280;48509;52.122;5.250;2024-03-23T08:22:39;100864.0;;;9.02;100.0
62458;BME280;48509;52.122;5.250;2024-03-23T08:24:15;100861.0;;;9.24;100.0
62458;BME280;48509;52.122;5.250;2024-03-23T08:25:52;100869.0;;;9.22;100.0
62458;BME280;48509;52.122;5.250;2024-03-23T08:29:05;100863.0;;;9.25;100.0
62458;BME280;48509;52.122;5.250;2024-03-23T08:30:41;100876.0;;;9.36;100.0
62458;BME280;48509;52.122;5.250;2024-03-23T08:32:17;100874.0;;;9.41;99.69
62458;BME280;48509;52.122;5.250;2024-03-23T08:35:29;100876.0;;;9.39;96.93
62458;BME280;48509;52.122;5.250;2024-03-23T08:37:05;100871.0;;;9.3;99.14
62458;BME280;48509;52.122;5.250;2024-03-23T08:38:41;100875.0;;;9.41;99.3
62458;BME280;48509;52.122;5.250;2024-03-23T08:41:53;100872.0;;;9.32;96.07
62458;BME280;48509;52.122;5.250;2024-03-23T08:43:31;100880.0;;;9.39;96.41
62458;BME280;48509;52.122;5.250;2024-03-23T08:45:08;100880.0;;;9.52;96.56
62458;BME280;48509;52.122;5.250;2024-03-23T08:48:20;100873.0;;;9.73;95.2
62458;BME280;48509;52.122;5.250;2024-03-23T08:49:56;100873.0;;;9.9;97.75
62458;BME280;48509;52.122;5.250;2024-03-23T08:51:32;100871.0;;;10.07;95.04
62458;BME280;48509;52.122;5.250;2024-03-23T08:53:08;100866.0;;;10.08;94.37
62458;BME280;48509;52.122;5.250;2024-03-23T08:56:20;100883.0;;;10.09;89.14
62458;BME280;48509;52.122;5.250;2024-03-23T08:57:56;100886.0;;;10.02;89.42
62458;BME280;48509;52.122;5.250;2024-03-23T08:59:33;100868.0;;;9.96;88.3
62458;BME280;48509;52.122;5.250;2024-03-23T09:02:47;100867.0;;;9.98;88.37
62458;BME280;48509;52.122;5.250;2024-03-23T09:04:23;100863.0;;;10.31;93.28
62458;BME280;48509;52.122;5.250;2024-03-23T09:05:59;100869.0;;;10.31;90.75
62458;BME280;48509;52.122;5.250;2024-03-23T09:09:11;100862.0;;;10.16;93.96
62458;BME280;48509;52.122;5.250;2024-03-23T09:10:47;100870.0;;;10.14;94.96
62458;BME280;48509;52.122;5.250;2024-03-23T09:12:24;100870.0;;;9.88;96.79
62458;BME280;48509;52.122;5.250;2024-03-23T09:14:01;100880.0;;;9.55;100.0
62458;BME280;48509;52.122;5.250;2024-03-23T09:17:23;100869.0;;;9.23;100.0
62458;BME280;48509;52.122;5.250;2024-03-23T09:18:59;100868.0;;;9.15;100.0
62458;BME280;48509;52.122;5.250;2024-03-23T09:20:35;100863.0;;;9.21;100.0
62458;BME280;48509;52.122;5.250;2024-03-23T09:23:47;100863.0;;;9.11;100.0
62458;BME280;48509;52.122;5.250;2024-03-23T09:25:23;100858.0;;;8.77;100.0
62458;BME280;48509;52.122;5.250;2024-03-23T09:26:59;100858.0;;;8.98;100.0
62458;BME280;48509;52.122;5.250;2024-03-23T09:28:36;100865.0;;;8.83;100.0
62458;BME280;48509;52.122;5.250;2024-03-23T09:31:50;100863.0;;;9.06;100.0
62458;BME280;48509;52.122;5.250;2024-03-23T09:33:26;100867.0;;;9.06;100.0
62458;BME280;48509;52.122;5.250;2024-03-23T09:35:02;100880.0;;;8.6;100.0
62458;BME280;48509;52.122;5.250;2024-03-23T09:38:15;100871.0;;;8.42;100.0
62458;BME280;48509;52.122;5.250;2024-03-23T09:39:51;100872.0;;;8.22;100.0
62458;BME280;48509;52.122;5.250;2024-03-23T09:41:27;100873.0;;;8.17;100.0
62458;BME280;48509;52.122;5.250;2024-03-23T09:44:43;100868.0;;;8.16;100.0
62458;BME280;48509;52.122;5.250;2024-03-23T09:46:19;100867.0;;;7.96;100.0
62458;BME280;48509;52.122;5.250;2024-03-23T09:47:57;100863.0;;;8.06;100.0
62458;BME280;48509;52.122;5.250;2024-03-23T09:49:34;100853.0;;;8.22;100.0
62458;BME280;48509;52.122;5.250;2024-03-23T09:52:47;100851.0;;;8.35;100.0
62458;BME280;48509;52.122;5.250;2024-03-23T09:54:24;100851.0;;;8.49;100.0
62458;BME280;48509;52.122;5.250;2024-03-23T09:56:00;100845.0;;;8.67;100.0
62458;BME280;48509;52.122;5.250;2024-03-23T09:59:12;100843.0;;;8.93;100.0
62458;BME280;48509;52.122;5.250;2024-03-23T10:00:48;100848.0;;;9.08;100.0
62458;BME280;48509;52.122;5.250;2024-03-23T10:02:25;100843.0;;;9.19;100.0
62458;BME280;48509;52.122;5.250;2024-03-23T10:05:39;100849.0;;;9.25;100.0
62458;BME280;48509;52.122;5.250;2024-03-23T10:07:18;100845.0;;;9.26;100.0
62458;BME280;48509;52.122;5.250;2024-03-23T10:08:55;100851.0;;;9.48;100.0
62458;BME280;48509;52.122;5.250;2024-03-23T10:10:31;100850.0;;;9.5;100.0
62458;BME280;48509;52.122;5.250;2024-03-23T10:13:45;100859.0;;;9.32;100.0
62458;BME280;48509;52.122;5.250;2024-03-23T10:15:23;100855.0;;;9.25;100.0
62458;BME280;48509;52.122;5.250;2024-03-23T10:17:12;100867.0;;;9.06;100.0
62458;BME280;48509;52.122;5.250;2024-03-23T10:18:49;100853.0;;;8.98;100.0
62458;BME280;48509;52.122;5.250;2024-03-23T10:22:02;100857.0;;;8.98;100.0
62458;BME280;48509;52.122;5.250;2024-03-23T10:23:39;100851.0;;;9.22;100.0
62458;BME280;48509;52.122;5.250;2024-03-23T10:25:16;100853.0;;;9.42;100.0
62458;BME280;48509;52.122;5.250;2024-03-23T10:28:32;100856.0;;;9.46;96.58
62458;BME280;48509;52.122;5.250;2024-03-23T10:30:10;100850.0;;;9.48;94.84
62458;BME280;48509;52.122;5.250;2024-03-23T10:31:46;100847.0;;;9.56;94.64
62458;BME280;48509;52.122;5.250;2024-03-23T10:35:13;100846.0;;;9.82;99.6
62458;BME280;48509;52.122;5.250;2024-03-23T10:36:53;100849.0;;;10.09;97.38
62458;BME280;48509;52.122;5.250;2024-03-23T10:38:29;100847.0;;;10.1;96.3
62458;BME280;48509;52.122;5.250;2024-03-23T10:40:07;100848.0;;;9.98;90.52
62458;BME280;48509;52.122;5.250;2024-03-23T10:43:21;100859.0;;;9.78;92.2
62458;BME280;48509;52.122;5.250;2024-03-23T10:44:58;100869.0;;;9.42;96.84
62458;BME280;48509;52.122;5.250;2024-03-23T10:46:35;100873.0;;;9.47;97.81
62458;BME280;48509;52.122;5.250;2024-03-23T10:48:10;100869.0;;;9.26;100.0
62458;BME280;48509;52.122;5.250;2024-03-23T10:51:22;100860.0;;;8.77;96.48
62458;BME280;48509;52.122;5.250;2024-03-23T10:52:59;100861.0;;;8.71;96.04
62458;BME280;48509;52.122;5.250;2024-03-23T10:54:35;100856.0;;;8.84;97.83
62458;BME280;48509;52.122;5.250;2024-03-23T10:57:53;100850.0;;;9.11;100.0
62458;BME280;48509;52.122;5.250;2024-03-23T10:59:31;100860.0;;;9.43;98.62
62458;BME280;48509;52.122;5.250;2024-03-23T11:01:10;100850.0;;;9.65;96.24
62458;BME280;48509;52.122;5.250;2024-03-23T11:02:47;100841.0;;;10.03;95.53
62458;BME280;48509;52.122;5.250;2024-03-23T11:06:08;100831.0;;;10.4;98.71
62458;BME280;48509;52.122;5.250;2024-03-23T11:07:49;100838.0;;;10.53;94.28
62458;BME280;48509;52.122;5.250;2024-03-23T11:09:45;100837.0;;;10.63;91.74
62458;BME280;48509;52.122;5.250;2024-03-23T11:11:22;100838.0;;;10.61;89.5
62458;BME280;48509;52.122;5.250;2024-03-23T11:15:01;100855.0;;;10.3;85.16
62458;BME280;48509;52.122;5.250;2024-03-23T11:16:38;100871.0;;;10.26;83.62
62458;BME280;48509;52.122;5.250;2024-03-23T11:18:20;100851.0;;;9.99;86.07
62458;BME280;48509;52.122;5.250;2024-03-23T11:19:57;100857.0;;;9.99;87.76
62458;BME280;48509;52.122;5.250;2024-03-23T11:21:54;100848.0;;;10.03;90.03
62458;BME280;48509;52.122;5.250;2024-03-23T11:25:19;100861.0;;;10.24;88.39
62458;BME280;48509;52.122;5.250;2024-03-23T11:26:56;100845.0;;;10.34;88.38
62458;BME280;48509;52.122;5.250;2024-03-23T11:28:32;100837.0;;;10.37;87.46
62458;BME280;48509;52.122;5.250;2024-03-23T11:30:11;100837.0;;;10.37;86.84
62458;BME280;48509;52.122;5.250;2024-03-23T11:33:27;100841.0;;;10.33;84.85
62458;BME280;48509;52.122;5.250;2024-03-23T11:35:04;100842.0;;;10.36;85.28
62458;BME280;48509;52.122;5.250;2024-03-23T11:36:40;100846.0;;;10.46;84.68
62458;BME280;48509;52.122;5.250;2024-03-23T11:39:54;100827.0;;;10.56;87.44
62458;BME280;48509;52.122;5.250;2024-03-23T11:41:30;100830.0;;;10.73;83.73
62458;BME280;48509;52.122;5.250;2024-03-23T11:43:07;100833.0;;;10.79;86.39
62458;BME280;48509;52.122;5.250;2024-03-23T11:44:44;100833.0;;;10.65;84.04
62458;BME280;48509;52.122;5.250;2024-03-23T11:48:02;100823.0;;;10.55;82.28
62458;BME280;48509;52.122;5.250;2024-03-23T11:49:41;100828.0;;;10.23;80.33
62458;BME280;48509;52.122;5.250;2024-03-23T11:51:17;100853.0;;;10.29;82.2
62458;BME280;48509;52.122;5.250;2024-03-23T11:54:42;100831.0;;;10.21;81.66
62458;BME280;48509;52.122;5.250;2024-03-23T11:56:18;100826.0;;;10.27;80.5
62458;BME280;48509;52.122;5.250;2024-03-23T11:57:54;100819.0;;;10.26;81.59
62458;BME280;48509;52.122;5.250;2024-03-23T11:59:32;100834.0;;;10.23;83.12
62458;BME280;48509;52.122;5.250;2024-03-23T12:02:46;100825.0;;;10.14;82.97
62458;BME280;48509;52.122;5.250;2024-03-23T12:04:25;100834.0;;;9.92;83.71
62458;BME280;48509;52.122;5.250;2024-03-23T12:06:03;100826.0;;;9.91;82.74